sensor_id;sensor_type;location;lat;lon;timestamp;P1;durP1;ratioP1;P2;durP2;ratioP2
18387;SDS011;9320;50.256;19.026;2022-07-21T00:00:36;18.95;;;8.70;;
18387;SDS011;9320;50.256;19.026;2022-07-21T00:03:04;16.20;;;8.95;;
18387;SDS011;9320;50.256;19.026;2022-07-21T00:05:34;21.38;;;9.98;;
18387;SDS011;9320;50.256;19.026;2022-07-21T00:08:03;19.48;;;10.07;;
18387;SDS011;9320;50.256;19.026;2022-07-21T00:10:32;26.23;;;10.52;;
18387;SDS011;9320;50.256;19.026;2022-07-21T00:13:00;19.35;;;9.60;;
18387;SDS011;9320;50.256;19.026;2022-07-21T00:15:28;20.75;;;10.02;;
18387;SDS011;9320;50.256;19.026;2022-07-21T00:17:57;19.70;;;9.45;;
18387;SDS011;9320;50.256;19.026;2022-07-21T00:20:27;19.83;;;10.30;;
18387;SDS011;9320;50.256;19.026;2022-07-21T00:22:58;18.27;;;9.70;;
18387;SDS011;9320;50.256;19.026;2022-07-21T00:25:26;18.00;;;9.27;;
18387;SDS011;9320;50.256;19.026;2022-07-21T00:27:59;20.80;;;9.38;;
18387;SDS011;9320;50.256;19.026;2022-07-21T00:30:29;15.85;;;8.70;;
18387;SDS011;9320;50.256;19.026;2022-07-21T00:32:57;15.50;;;8.73;;
18387;SDS011;9320;50.256;19.026;2022-07-21T00:35:25;22.73;;;9.27;;
18387;SDS011;9320;50.256;19.026;2022-07-21T00:37:54;16.58;;;9.00;;
18387;SDS011;9320;50.256;19.026;2022-07-21T00:40:24;21.38;;;9.63;;
18387;SDS011;9320;50.256;19.026;2022-07-21T00:42:52;15.27;;;8.93;;
18387;SDS011;9320;50.256;19.026;2022-07-21T00:45:21;15.18;;;8.63;;
18387;SDS011;9320;50.256;19.026;2022-07-21T00:47:49;20.92;;;8.57;;
18387;SDS011;9320;50.256;19.026;2022-07-21T00:50:19;15.75;;;8.80;;
18387;SDS011;9320;50.256;19.026;2022-07-21T00:52:48;16.23;;;9.02;;
18387;SDS011;9320;50.256;19.026;2022-07-21T00:55:18;25.83;;;9.90;;
18387;SDS011;9320;50.256;19.026;2022-07-21T00:57:50;20.15;;;9.80;;
18387;SDS011;9320;50.256;19.026;2022-07-21T01:00:20;19.13;;;10.27;;
18387;SDS011;9320;50.256;19.026;2022-07-21T01:02:50;17.65;;;10.68;;
18387;SDS011;9320;50.256;19.026;2022-07-21T01:05:19;19.45;;;9.70;;
18387;SDS011;9320;50.256;19.026;2022-07-21T01:07:49;21.73;;;11.00;;
18387;SDS011;9320;50.256;19.026;2022-07-21T01:10:20;14.80;;;9.52;;
18387;SDS011;9320;50.256;19.026;2022-07-21T01:12:52;19.67;;;10.73;;
18387;SDS011;9320;50.256;19.026;2022-07-21T01:15:20;18.25;;;10.55;;
18387;SDS011;9320;50.256;19.026;2022-07-21T01:17:50;21.23;;;10.23;;
18387;SDS011;9320;50.256;19.026;2022-07-21T01:20:19;21.42;;;10.15;;
18387;SDS011;9320;50.256;19.026;2022-07-21T01:22:50;20.27;;;10.18;;
18387;SDS011;9320;50.256;19.026;2022-07-21T01:25:20;21.50;;;9.65;;
18387;SDS011;9320;50.256;19.026;2022-07-21T01:27:48;20.27;;;9.95;;
18387;SDS011;9320;50.256;19.026;2022-07-21T01:30:17;19.10;;;10.35;;
18387;SDS011;9320;50.256;19.026;2022-07-21T01:32:46;19.85;;;9.75;;
18387;SDS011;9320;50.256;19.026;2022-07-21T01:35:14;15.90;;;10.00;;
18387;SDS011;9320;50.256;19.026;2022-07-21T01:37:44;19.88;;;10.48;;
18387;SDS011;9320;50.256;19.026;2022-07-21T01:40:15;17.77;;;10.27;;
18387;SDS011;9320;50.256;19.026;2022-07-21T01:43:02;19.98;;;10.38;;
18387;SDS011;9320;50.256;19.026;2022-07-21T01:45:37;18.35;;;9.77;;
18387;SDS011;9320;50.256;19.026;2022-07-21T01:48:06;19.23;;;10.32;;
18387;SDS011;9320;50.256;19.026;2022-07-21T01:50:36;21.42;;;10.93;;
18387;SDS011;9320;50.256;19.026;2022-07-21T01:53:04;21.17;;;10.82;;
18387;SDS011;9320;50.256;19.026;2022-07-21T01:55:34;22.98;;;10.88;;
18387;SDS011;9320;50.256;19.026;2022-07-21T01:58:02;21.27;;;11.27;;
18387;SDS011;9320;50.256;19.026;2022-07-21T02:00:31;23.23;;;10.85;;
18387;SDS011;9320;50.256;19.026;2022-07-21T02:02:59;22.50;;;10.90;;
18387;SDS011;9320;50.256;19.026;2022-07-21T02:05:28;20.77;;;9.82;;
18387;SDS011;9320;50.256;19.026;2022-07-21T02:07:56;16.83;;;9.10;;
18387;SDS011;9320;50.256;19.026;2022-07-21T02:10:24;20.38;;;9.38;;
18387;SDS011;9320;50.256;19.026;2022-07-21T02:12:54;16.77;;;9.23;;
18387;SDS011;9320;50.256;19.026;2022-07-21T02:15:22;15.60;;;8.50;;
18387;SDS011;9320;50.256;19.026;2022-07-21T02:17:51;16.77;;;8.18;;
18387;SDS011;9320;50.256;19.026;2022-07-21T02:20:19;16.33;;;7.80;;
18387;SDS011;9320;50.256;19.026;2022-07-21T02:22:47;13.15;;;7.53;;
18387;SDS011;9320;50.256;19.026;2022-07-21T02:25:16;11.15;;;6.93;;
18387;SDS011;9320;50.256;19.026;2022-07-21T02:27:45;15.68;;;7.15;;
18387;SDS011;9320;50.256;19.026;2022-07-21T02:30:15;13.60;;;7.40;;
18387;SDS011;9320;50.256;19.026;2022-07-21T02:32:43;11.73;;;6.80;;
18387;SDS011;9320;50.256;19.026;2022-07-21T02:35:12;11.45;;;6.38;;
18387;SDS011;9320;50.256;19.026;2022-07-21T02:37:40;12.10;;;6.50;;
18387;SDS011;9320;50.256;19.026;2022-07-21T02:40:09;11.77;;;6.40;;
18387;SDS011;9320;50.256;19.026;2022-07-21T02:42:37;12.07;;;6.43;;
18387;SDS011;9320;50.256;19.026;2022-07-21T02:45:06;9.80;;;6.15;;
18387;SDS011;9320;50.256;19.026;2022-07-21T02:47:48;9.85;;;6.03;;
18387;SDS011;9320;50.256;19.026;2022-07-21T02:50:18;10.13;;;5.93;;
18387;SDS011;9320;50.256;19.026;2022-07-21T02:52:48;10.95;;;6.63;;
18387;SDS011;9320;50.256;19.026;2022-07-21T02:55:16;15.38;;;6.45;;
18387;SDS011;9320;50.256;19.026;2022-07-21T02:57:44;11.55;;;6.50;;
18387;SDS011;9320;50.256;19.026;2022-07-21T03:00:13;10.27;;;6.60;;
18387;SDS011;9320;50.256;19.026;2022-07-21T03:02:42;16.15;;;6.68;;
18387;SDS011;9320;50.256;19.026;2022-07-21T03:05:11;13.60;;;7.15;;
18387;SDS011;9320;50.256;19.026;2022-07-21T03:07:40;12.88;;;6.82;;
18387;SDS011;9320;50.256;19.026;2022-07-21T03:10:08;13.32;;;7.05;;
18387;SDS011;9320;50.256;19.026;2022-07-21T03:12:37;12.02;;;7.10;;
18387;SDS011;9320;50.256;19.026;2022-07-21T03:15:06;18.42;;;6.53;;
18387;SDS011;9320;50.256;19.026;2022-07-21T03:17:35;12.00;;;6.80;;
18387;SDS011;9320;50.256;19.026;2022-07-21T03:20:03;11.15;;;6.50;;
18387;SDS011;9320;50.256;19.026;2022-07-21T03:22:34;10.25;;;6.00;;
18387;SDS011;9320;50.256;19.026;2022-07-21T03:25:02;11.23;;;6.13;;
18387;SDS011;9320;50.256;19.026;2022-07-21T03:27:31;12.23;;;6.38;;
18387;SDS011;9320;50.256;19.026;2022-07-21T03:30:06;11.95;;;6.55;;
18387;SDS011;9320;50.256;19.026;2022-07-21T03:32:36;11.18;;;6.65;;
18387;SDS011;9320;50.256;19.026;2022-07-21T03:35:05;13.90;;;6.38;;
18387;SDS011;9320;50.256;19.026;2022-07-21T03:37:41;12.50;;;7.18;;
18387;SDS011;9320;50.256;19.026;2022-07-21T03:40:11;14.98;;;6.75;;
18387;SDS011;9320;50.256;19.026;2022-07-21T03:42:41;11.63;;;6.80;;
18387;SDS011;9320;50.256;19.026;2022-07-21T03:45:09;12.27;;;6.70;;
18387;SDS011;9320;50.256;19.026;2022-07-21T03:47:38;16.15;;;6.38;;
18387;SDS011;9320;50.256;19.026;2022-07-21T03:50:07;14.80;;;6.60;;
18387;SDS011;9320;50.256;19.026;2022-07-21T03:52:35;16.42;;;7.10;;
18387;SDS011;9320;50.256;19.026;2022-07-21T03:55:06;15.32;;;6.70;;
18387;SDS011;9320;50.256;19.026;2022-07-21T03:57:41;14.07;;;6.60;;
18387;SDS011;9320;50.256;19.026;2022-07-21T04:00:12;12.63;;;7.07;;
18387;SDS011;9320;50.256;19.026;2022-07-21T04:02:43;14.43;;;6.55;;
18387;SDS011;9320;50.256;19.026;2022-07-21T04:05:13;16.80;;;7.40;;
18387;SDS011;9320;50.256;19.026;2022-07-21T04:07:43;17.55;;;7.80;;
18387;SDS011;9320;50.256;19.026;2022-07-21T04:10:14;14.60;;;7.82;;
18387;SDS011;9320;50.256;19.026;2022-07-21T04:12:46;15.63;;;7.97;;
18387;SDS011;9320;50.256;19.026;2022-07-21T04:15:15;17.67;;;7.70;;
18387;SDS011;9320;50.256;19.026;2022-07-21T04:17:44;17.85;;;8.63;;
18387;SDS011;9320;50.256;19.026;2022-07-21T04:20:13;27.33;;;8.38;;
18387;SDS011;9320;50.256;19.026;2022-07-21T04:22:42;15.85;;;8.45;;
18387;SDS011;9320;50.256;19.026;2022-07-21T04:25:11;20.90;;;8.45;;
18387;SDS011;9320;50.256;19.026;2022-07-21T04:27:42;16.48;;;8.40;;
18387;SDS011;9320;50.256;19.026;2022-07-21T04:30:11;18.27;;;8.30;;
18387;SDS011;9320;50.256;19.026;2022-07-21T04:32:41;22.38;;;9.20;;
18387;SDS011;9320;50.256;19.026;2022-07-21T04:35:09;20.58;;;8.70;;
18387;SDS011;9320;50.256;19.026;2022-07-21T04:37:38;21.83;;;8.73;;
18387;SDS011;9320;50.256;19.026;2022-07-21T04:40:07;18.88;;;8.38;;
18387;SDS011;9320;50.256;19.026;2022-07-21T04:42:38;16.13;;;8.25;;
18387;SDS011;9320;50.256;19.026;2022-07-21T04:45:07;21.65;;;8.05;;
18387;SDS011;9320;50.256;19.026;2022-07-21T04:47:41;17.45;;;8.00;;
18387;SDS011;9320;50.256;19.026;2022-07-21T04:50:10;17.23;;;8.25;;
18387;SDS011;9320;50.256;19.026;2022-07-21T04:52:39;14.88;;;6.70;;
18387;SDS011;9320;50.256;19.026;2022-07-21T04:55:08;15.15;;;6.38;;
18387;SDS011;9320;50.256;19.026;2022-07-21T04:57:38;14.48;;;6.43;;
18387;SDS011;9320;50.256;19.026;2022-07-21T05:00:08;12.57;;;5.97;;
18387;SDS011;9320;50.256;19.026;2022-07-21T05:02:38;15.98;;;6.50;;
18387;SDS011;9320;50.256;19.026;2022-07-21T05:05:07;16.15;;;6.13;;
18387;SDS011;9320;50.256;19.026;2022-07-21T05:07:36;12.55;;;6.10;;
18387;SDS011;9320;50.256;19.026;2022-07-21T05:10:05;14.23;;;6.60;;
18387;SDS011;9320;50.256;19.026;2022-07-21T05:12:34;13.60;;;6.50;;
18387;SDS011;9320;50.256;19.026;2022-07-21T05:15:05;11.32;;;6.15;;
18387;SDS011;9320;50.256;19.026;2022-07-21T05:17:35;13.95;;;6.22;;
18387;SDS011;9320;50.256;19.026;2022-07-21T05:20:04;11.25;;;6.03;;
18387;SDS011;9320;50.256;19.026;2022-07-21T05:22:34;12.55;;;5.82;;
18387;SDS011;9320;50.256;19.026;2022-07-21T05:25:02;17.20;;;6.22;;
18387;SDS011;9320;50.256;19.026;2022-07-21T05:27:31;14.25;;;6.22;;
18387;SDS011;9320;50.256;19.026;2022-07-21T05:30:00;14.13;;;5.30;;
18387;SDS011;9320;50.256;19.026;2022-07-21T05:32:30;23.50;;;6.95;;
18387;SDS011;9320;50.256;19.026;2022-07-21T05:34:58;13.10;;;5.88;;
18387;SDS011;9320;50.256;19.026;2022-07-21T05:37:26;11.68;;;5.95;;
18387;SDS011;9320;50.256;19.026;2022-07-21T05:39:55;11.52;;;5.70;;
18387;SDS011;9320;50.256;19.026;2022-07-21T05:42:23;23.55;;;6.80;;
18387;SDS011;9320;50.256;19.026;2022-07-21T05:44:51;16.85;;;6.53;;
18387;SDS011;9320;50.256;19.026;2022-07-21T05:47:20;16.10;;;6.65;;
18387;SDS011;9320;50.256;19.026;2022-07-21T05:49:49;14.38;;;5.85;;
18387;SDS011;9320;50.256;19.026;2022-07-21T05:52:18;28.23;;;7.13;;
18387;SDS011;9320;50.256;19.026;2022-07-21T05:54:47;60.15;;;8.82;;
18387;SDS011;9320;50.256;19.026;2022-07-21T05:57:15;35.50;;;7.38;;
18387;SDS011;9320;50.256;19.026;2022-07-21T05:59:44;16.02;;;6.57;;
18387;SDS011;9320;50.256;19.026;2022-07-21T06:02:13;24.17;;;6.45;;
18387;SDS011;9320;50.256;19.026;2022-07-21T06:04:41;38.97;;;7.38;;
18387;SDS011;9320;50.256;19.026;2022-07-21T06:07:11;35.55;;;6.95;;
18387;SDS011;9320;50.256;19.026;2022-07-21T06:09:39;23.45;;;6.55;;
18387;SDS011;9320;50.256;19.026;2022-07-21T06:12:08;22.92;;;6.20;;
18387;SDS011;9320;50.256;19.026;2022-07-21T06:14:36;19.15;;;6.97;;
18387;SDS011;9320;50.256;19.026;2022-07-21T06:17:05;14.75;;;5.82;;
18387;SDS011;9320;50.256;19.026;2022-07-21T06:19:33;15.75;;;5.70;;
18387;SDS011;9320;50.256;19.026;2022-07-21T06:22:01;9.40;;;5.15;;
18387;SDS011;9320;50.256;19.026;2022-07-21T06:24:31;14.73;;;6.15;;
18387;SDS011;9320;50.256;19.026;2022-07-21T06:27:00;12.10;;;6.45;;
18387;SDS011;9320;50.256;19.026;2022-07-21T06:29:31;11.18;;;5.97;;
18387;SDS011;9320;50.256;19.026;2022-07-21T06:32:00;16.00;;;5.60;;
18387;SDS011;9320;50.256;19.026;2022-07-21T06:34:28;11.82;;;5.97;;
18387;SDS011;9320;50.256;19.026;2022-07-21T06:36:56;10.80;;;5.65;;
18387;SDS011;9320;50.256;19.026;2022-07-21T06:39:25;14.05;;;5.50;;
18387;SDS011;9320;50.256;19.026;2022-07-21T06:41:55;12.38;;;5.40;;
18387;SDS011;9320;50.256;19.026;2022-07-21T06:44:23;11.80;;;5.47;;
18387;SDS011;9320;50.256;19.026;2022-07-21T06:46:52;15.90;;;5.82;;
18387;SDS011;9320;50.256;19.026;2022-07-21T06:49:20;12.35;;;5.20;;
18387;SDS011;9320;50.256;19.026;2022-07-21T06:51:49;12.50;;;5.25;;
18387;SDS011;9320;50.256;19.026;2022-07-21T06:54:20;11.15;;;6.05;;
18387;SDS011;9320;50.256;19.026;2022-07-21T06:56:48;11.00;;;6.03;;
18387;SDS011;9320;50.256;19.026;2022-07-21T06:59:17;11.38;;;5.22;;
18387;SDS011;9320;50.256;19.026;2022-07-21T07:01:46;11.68;;;5.68;;
18387;SDS011;9320;50.256;19.026;2022-07-21T07:04:14;7.72;;;5.07;;
18387;SDS011;9320;50.256;19.026;2022-07-21T07:06:42;11.75;;;5.22;;
18387;SDS011;9320;50.256;19.026;2022-07-21T07:09:11;11.80;;;5.32;;
18387;SDS011;9320;50.256;19.026;2022-07-21T07:11:39;16.45;;;5.95;;
18387;SDS011;9320;50.256;19.026;2022-07-21T07:14:28;14.50;;;5.70;;
18387;SDS011;9320;50.256;19.026;2022-07-21T07:16:57;11.98;;;5.55;;
18387;SDS011;9320;50.256;19.026;2022-07-21T07:19:26;10.55;;;5.35;;
18387;SDS011;9320;50.256;19.026;2022-07-21T07:21:54;14.73;;;5.60;;
18387;SDS011;9320;50.256;19.026;2022-07-21T07:24:23;24.05;;;5.95;;
18387;SDS011;9320;50.256;19.026;2022-07-21T07:26:51;23.15;;;6.13;;
18387;SDS011;9320;50.256;19.026;2022-07-21T07:29:19;11.02;;;5.03;;
18387;SDS011;9320;50.256;19.026;2022-07-21T07:31:49;12.98;;;5.10;;
18387;SDS011;9320;50.256;19.026;2022-07-21T07:34:17;14.82;;;5.93;;
18387;SDS011;9320;50.256;19.026;2022-07-21T07:36:45;20.52;;;5.53;;
18387;SDS011;9320;50.256;19.026;2022-07-21T07:39:13;16.55;;;5.57;;
18387;SDS011;9320;50.256;19.026;2022-07-21T07:41:42;18.50;;;5.82;;
18387;SDS011;9320;50.256;19.026;2022-07-21T07:44:11;15.30;;;6.22;;
18387;SDS011;9320;50.256;19.026;2022-07-21T07:46:39;14.88;;;5.90;;
18387;SDS011;9320;50.256;19.026;2022-07-21T07:49:09;16.10;;;5.28;;
18387;SDS011;9320;50.256;19.026;2022-07-21T07:51:44;21.50;;;5.97;;
18387;SDS011;9320;50.256;19.026;2022-07-21T07:54:12;13.00;;;5.72;;
18387;SDS011;9320;50.256;19.026;2022-07-21T07:56:40;13.27;;;5.68;;
18387;SDS011;9320;50.256;19.026;2022-07-21T07:59:09;32.38;;;15.18;;
18387;SDS011;9320;50.256;19.026;2022-07-21T08:01:37;26.70;;;9.38;;
18387;SDS011;9320;50.256;19.026;2022-07-21T08:04:06;23.55;;;6.75;;
18387;SDS011;9320;50.256;19.026;2022-07-21T08:06:36;36.90;;;7.65;;
18387;SDS011;9320;50.256;19.026;2022-07-21T08:09:04;26.65;;;5.65;;
18387;SDS011;9320;50.256;19.026;2022-07-21T08:11:32;10.40;;;5.40;;
18387;SDS011;9320;50.256;19.026;2022-07-21T08:14:00;9.75;;;5.20;;
18387;SDS011;9320;50.256;19.026;2022-07-21T08:16:28;16.67;;;5.35;;
18387;SDS011;9320;50.256;19.026;2022-07-21T08:18:57;13.60;;;5.93;;
18387;SDS011;9320;50.256;19.026;2022-07-21T08:21:25;14.50;;;5.57;;
18387;SDS011;9320;50.256;19.026;2022-07-21T08:24:18;12.43;;;5.25;;
18387;SDS011;9320;50.256;19.026;2022-07-21T08:26:46;15.13;;;5.50;;
18387;SDS011;9320;50.256;19.026;2022-07-21T08:29:15;12.43;;;5.30;;
18387;SDS011;9320;50.256;19.026;2022-07-21T08:31:43;7.28;;;4.53;;
18387;SDS011;9320;50.256;19.026;2022-07-21T08:34:12;17.83;;;5.60;;
18387;SDS011;9320;50.256;19.026;2022-07-21T08:36:40;9.70;;;5.50;;
18387;SDS011;9320;50.256;19.026;2022-07-21T08:39:08;23.15;;;5.80;;
18387;SDS011;9320;50.256;19.026;2022-07-21T08:41:38;13.45;;;5.30;;
18387;SDS011;9320;50.256;19.026;2022-07-21T08:44:07;13.27;;;4.72;;
18387;SDS011;9320;50.256;19.026;2022-07-21T08:46:37;11.48;;;4.47;;
18387;SDS011;9320;50.256;19.026;2022-07-21T08:49:09;8.27;;;4.50;;
18387;SDS011;9320;50.256;19.026;2022-07-21T08:51:38;12.73;;;4.90;;
18387;SDS011;9320;50.256;19.026;2022-07-21T08:54:06;13.50;;;5.22;;
18387;SDS011;9320;50.256;19.026;2022-07-21T08:56:34;11.20;;;4.82;;
18387;SDS011;9320;50.256;19.026;2022-07-21T08:59:04;10.23;;;4.82;;
18387;SDS011;9320;50.256;19.026;2022-07-21T09:01:32;9.30;;;4.55;;
18387;SDS011;9320;50.256;19.026;2022-07-21T09:06:54;11.60;;;5.50;;
18387;SDS011;9320;50.256;19.026;2022-07-21T09:09:25;17.48;;;5.93;;
18387;SDS011;9320;50.256;19.026;2022-07-21T09:11:54;27.92;;;6.40;;
18387;SDS011;9320;50.256;19.026;2022-07-21T09:14:25;13.05;;;5.07;;
18387;SDS011;9320;50.256;19.026;2022-07-21T09:16:56;13.77;;;5.13;;
18387;SDS011;9320;50.256;19.026;2022-07-21T09:19:34;11.93;;;4.72;;
18387;SDS011;9320;50.256;19.026;2022-07-21T09:22:05;16.80;;;5.82;;
18387;SDS011;9320;50.256;19.026;2022-07-21T09:24:39;9.80;;;5.43;;
18387;SDS011;9320;50.256;19.026;2022-07-21T09:27:08;10.93;;;4.70;;
18387;SDS011;9320;50.256;19.026;2022-07-21T09:29:40;11.07;;;5.47;;
18387;SDS011;9320;50.256;19.026;2022-07-21T09:32:12;9.40;;;4.78;;
18387;SDS011;9320;50.256;19.026;2022-07-21T09:34:42;19.25;;;6.35;;
18387;SDS011;9320;50.256;19.026;2022-07-21T09:37:10;9.57;;;4.68;;
18387;SDS011;9320;50.256;19.026;2022-07-21T09:39:46;14.63;;;5.28;;
18387;SDS011;9320;50.256;19.026;2022-07-21T09:42:17;14.05;;;5.72;;
18387;SDS011;9320;50.256;19.026;2022-07-21T09:44:49;12.13;;;5.18;;
18387;SDS011;9320;50.256;19.026;2022-07-21T09:47:20;17.88;;;5.65;;
18387;SDS011;9320;50.256;19.026;2022-07-21T09:49:51;8.50;;;4.65;;
18387;SDS011;9320;50.256;19.026;2022-07-21T09:52:40;21.63;;;6.55;;
18387;SDS011;9320;50.256;19.026;2022-07-21T09:55:10;8.77;;;4.70;;
18387;SDS011;9320;50.256;19.026;2022-07-21T09:57:40;9.85;;;5.35;;
18387;SDS011;9320;50.256;19.026;2022-07-21T10:00:11;8.88;;;4.35;;
18387;SDS011;9320;50.256;19.026;2022-07-21T10:02:45;14.65;;;4.90;;
18387;SDS011;9320;50.256;19.026;2022-07-21T10:05:14;10.85;;;4.70;;
18387;SDS011;9320;50.256;19.026;2022-07-21T10:07:44;12.52;;;5.07;;
18387;SDS011;9320;50.256;19.026;2022-07-21T10:10:14;8.85;;;4.78;;
18387;SDS011;9320;50.256;19.026;2022-07-21T10:12:46;15.20;;;6.88;;
18387;SDS011;9320;50.256;19.026;2022-07-21T10:15:17;13.77;;;5.03;;
18387;SDS011;9320;50.256;19.026;2022-07-21T10:17:46;10.13;;;4.75;;
18387;SDS011;9320;50.256;19.026;2022-07-21T10:20:21;14.15;;;6.03;;
18387;SDS011;9320;50.256;19.026;2022-07-21T10:22:57;17.88;;;7.28;;
18387;SDS011;9320;50.256;19.026;2022-07-21T10:25:34;11.25;;;4.53;;
18387;SDS011;9320;50.256;19.026;2022-07-21T10:28:13;10.63;;;4.22;;
18387;SDS011;9320;50.256;19.026;2022-07-21T10:30:45;16.80;;;4.63;;
18387;SDS011;9320;50.256;19.026;2022-07-21T10:33:15;16.45;;;5.15;;
18387;SDS011;9320;50.256;19.026;2022-07-21T10:35:46;13.82;;;4.20;;
18387;SDS011;9320;50.256;19.026;2022-07-21T10:41:02;25.60;;;5.70;;
18387;SDS011;9320;50.256;19.026;2022-07-21T10:43:39;22.55;;;5.03;;
18387;SDS011;9320;50.256;19.026;2022-07-21T10:49:02;13.57;;;4.38;;
18387;SDS011;9320;50.256;19.026;2022-07-21T10:51:33;16.23;;;4.40;;
18387;SDS011;9320;50.256;19.026;2022-07-21T10:54:15;12.80;;;4.05;;
18387;SDS011;9320;50.256;19.026;2022-07-21T10:56:45;9.98;;;4.30;;
18387;SDS011;9320;50.256;19.026;2022-07-21T10:59:14;18.35;;;4.35;;
18387;SDS011;9320;50.256;19.026;2022-07-21T11:01:43;12.30;;;4.32;;
18387;SDS011;9320;50.256;19.026;2022-07-21T11:04:12;15.13;;;4.50;;
18387;SDS011;9320;50.256;19.026;2022-07-21T11:06:44;20.13;;;5.40;;
18387;SDS011;9320;50.256;19.026;2022-07-21T11:09:13;8.52;;;4.30;;
18387;SDS011;9320;50.256;19.026;2022-07-21T11:11:58;14.20;;;4.07;;
18387;SDS011;9320;50.256;19.026;2022-07-21T11:14:34;41.00;;;7.40;;
18387;SDS011;9320;50.256;19.026;2022-07-21T11:17:08;23.73;;;4.97;;
18387;SDS011;9320;50.256;19.026;2022-07-21T11:19:40;20.05;;;5.00;;
18387;SDS011;9320;50.256;19.026;2022-07-21T11:22:12;8.52;;;4.10;;
18387;SDS011;9320;50.256;19.026;2022-07-21T11:24:43;9.50;;;4.22;;
18387;SDS011;9320;50.256;19.026;2022-07-21T11:27:13;9.80;;;3.97;;
18387;SDS011;9320;50.256;19.026;2022-07-21T11:29:44;18.35;;;5.35;;
18387;SDS011;9320;50.256;19.026;2022-07-21T11:32:15;9.10;;;3.97;;
18387;SDS011;9320;50.256;19.026;2022-07-21T11:34:46;18.60;;;4.82;;
18387;SDS011;9320;50.256;19.026;2022-07-21T11:37:16;12.27;;;4.22;;
18387;SDS011;9320;50.256;19.026;2022-07-21T11:40:04;23.48;;;4.88;;
18387;SDS011;9320;50.256;19.026;2022-07-21T11:42:35;9.68;;;3.83;;
18387;SDS011;9320;50.256;19.026;2022-07-21T11:45:04;9.07;;;4.47;;
18387;SDS011;9320;50.256;19.026;2022-07-21T11:47:36;47.83;;;8.48;;
18387;SDS011;9320;50.256;19.026;2022-07-21T11:50:05;18.67;;;4.72;;
18387;SDS011;9320;50.256;19.026;2022-07-21T11:52:36;16.05;;;5.03;;
18387;SDS011;9320;50.256;19.026;2022-07-21T11:55:06;11.27;;;4.50;;
18387;SDS011;9320;50.256;19.026;2022-07-21T11:57:37;7.55;;;4.18;;
18387;SDS011;9320;50.256;19.026;2022-07-21T12:00:10;11.60;;;4.30;;
18387;SDS011;9320;50.256;19.026;2022-07-21T12:02:41;8.60;;;4.10;;
18387;SDS011;9320;50.256;19.026;2022-07-21T12:05:10;9.52;;;4.20;;
18387;SDS011;9320;50.256;19.026;2022-07-21T12:07:40;9.48;;;4.38;;
18387;SDS011;9320;50.256;19.026;2022-07-21T12:10:11;10.20;;;3.75;;
18387;SDS011;9320;50.256;19.026;2022-07-21T12:12:43;8.27;;;3.78;;
18387;SDS011;9320;50.256;19.026;2022-07-21T12:15:14;11.27;;;4.38;;
18387;SDS011;9320;50.256;19.026;2022-07-21T12:17:50;11.95;;;4.15;;
18387;SDS011;9320;50.256;19.026;2022-07-21T12:20:24;16.33;;;4.72;;
18387;SDS011;9320;50.256;19.026;2022-07-21T12:22:55;6.68;;;4.00;;
18387;SDS011;9320;50.256;19.026;2022-07-21T12:25:30;10.07;;;3.60;;
18387;SDS011;9320;50.256;19.026;2022-07-21T12:28:00;16.52;;;4.38;;
18387;SDS011;9320;50.256;19.026;2022-07-21T12:30:34;9.88;;;3.88;;
18387;SDS011;9320;50.256;19.026;2022-07-21T12:33:08;9.95;;;3.70;;
18387;SDS011;9320;50.256;19.026;2022-07-21T12:35:39;9.35;;;3.83;;
18387;SDS011;9320;50.256;19.026;2022-07-21T12:38:11;15.63;;;4.20;;
18387;SDS011;9320;50.256;19.026;2022-07-21T12:40:44;30.67;;;4.80;;
18387;SDS011;9320;50.256;19.026;2022-07-21T12:43:38;20.90;;;4.30;;
18387;SDS011;9320;50.256;19.026;2022-07-21T12:46:15;13.15;;;4.05;;
18387;SDS011;9320;50.256;19.026;2022-07-21T12:48:48;13.60;;;4.25;;
18387;SDS011;9320;50.256;19.026;2022-07-21T12:51:20;12.82;;;4.22;;
18387;SDS011;9320;50.256;19.026;2022-07-21T12:53:53;9.38;;;3.95;;
18387;SDS011;9320;50.256;19.026;2022-07-21T12:56:24;12.88;;;4.03;;
18387;SDS011;9320;50.256;19.026;2022-07-21T12:58:54;12.48;;;4.07;;
18387;SDS011;9320;50.256;19.026;2022-07-21T13:01:26;10.43;;;4.10;;
18387;SDS011;9320;50.256;19.026;2022-07-21T13:04:00;8.15;;;3.80;;
18387;SDS011;9320;50.256;19.026;2022-07-21T13:06:32;9.50;;;3.75;;
18387;SDS011;9320;50.256;19.026;2022-07-21T13:09:03;11.68;;;4.28;;
18387;SDS011;9320;50.256;19.026;2022-07-21T13:11:32;8.45;;;4.38;;
18387;SDS011;9320;50.256;19.026;2022-07-21T13:14:05;6.53;;;4.05;;
18387;SDS011;9320;50.256;19.026;2022-07-21T13:16:34;12.80;;;4.57;;
18387;SDS011;9320;50.256;19.026;2022-07-21T13:19:05;7.97;;;3.67;;
18387;SDS011;9320;50.256;19.026;2022-07-21T13:21:33;14.85;;;3.90;;
18387;SDS011;9320;50.256;19.026;2022-07-21T13:24:03;9.38;;;3.80;;
18387;SDS011;9320;50.256;19.026;2022-07-21T13:26:32;7.13;;;3.97;;
18387;SDS011;9320;50.256;19.026;2022-07-21T13:29:01;7.05;;;3.70;;
18387;SDS011;9320;50.256;19.026;2022-07-21T13:31:34;11.75;;;4.28;;
18387;SDS011;9320;50.256;19.026;2022-07-21T13:34:05;12.13;;;3.95;;
18387;SDS011;9320;50.256;19.026;2022-07-21T13:36:36;10.13;;;4.00;;
18387;SDS011;9320;50.256;19.026;2022-07-21T13:39:09;12.07;;;3.78;;
18387;SDS011;9320;50.256;19.026;2022-07-21T13:41:57;14.88;;;4.03;;
18387;SDS011;9320;50.256;19.026;2022-07-21T13:44:47;11.15;;;3.88;;
18387;SDS011;9320;50.256;19.026;2022-07-21T13:47:16;15.75;;;4.00;;
18387;SDS011;9320;50.256;19.026;2022-07-21T13:49:47;12.02;;;3.85;;
18387;SDS011;9320;50.256;19.026;2022-07-21T13:52:16;10.73;;;4.22;;
18387;SDS011;9320;50.256;19.026;2022-07-21T13:54:45;10.10;;;3.83;;
18387;SDS011;9320;50.256;19.026;2022-07-21T13:57:14;12.95;;;4.63;;
18387;SDS011;9320;50.256;19.026;2022-07-21T13:59:43;11.85;;;3.65;;
18387;SDS011;9320;50.256;19.026;2022-07-21T14:02:12;9.18;;;4.05;;
18387;SDS011;9320;50.256;19.026;2022-07-21T14:04:41;8.65;;;3.83;;
18387;SDS011;9320;50.256;19.026;2022-07-21T14:07:13;8.40;;;3.80;;
18387;SDS011;9320;50.256;19.026;2022-07-21T14:09:42;9.07;;;4.43;;
18387;SDS011;9320;50.256;19.026;2022-07-21T14:12:12;14.85;;;3.92;;
18387;SDS011;9320;50.256;19.026;2022-07-21T14:14:41;7.70;;;3.70;;
18387;SDS011;9320;50.256;19.026;2022-07-21T14:17:13;10.55;;;4.55;;
18387;SDS011;9320;50.256;19.026;2022-07-21T14:19:43;9.35;;;3.92;;
18387;SDS011;9320;50.256;19.026;2022-07-21T14:22:15;10.77;;;3.70;;
18387;SDS011;9320;50.256;19.026;2022-07-21T14:24:51;8.88;;;3.83;;
18387;SDS011;9320;50.256;19.026;2022-07-21T14:27:37;8.25;;;4.00;;
18387;SDS011;9320;50.256;19.026;2022-07-21T14:30:07;7.70;;;3.50;;
18387;SDS011;9320;50.256;19.026;2022-07-21T14:32:36;8.10;;;4.00;;
18387;SDS011;9320;50.256;19.026;2022-07-21T14:35:06;11.52;;;3.92;;
18387;SDS011;9320;50.256;19.026;2022-07-21T14:37:39;11.10;;;3.85;;
18387;SDS011;9320;50.256;19.026;2022-07-21T14:40:09;10.40;;;3.97;;
18387;SDS011;9320;50.256;19.026;2022-07-21T14:42:38;10.93;;;3.88;;
18387;SDS011;9320;50.256;19.026;2022-07-21T14:45:08;10.15;;;4.10;;
18387;SDS011;9320;50.256;19.026;2022-07-21T14:47:47;8.98;;;3.90;;
18387;SDS011;9320;50.256;19.026;2022-07-21T14:50:18;11.68;;;4.03;;
18387;SDS011;9320;50.256;19.026;2022-07-21T14:52:54;10.75;;;3.97;;
18387;SDS011;9320;50.256;19.026;2022-07-21T14:55:24;10.85;;;3.75;;
18387;SDS011;9320;50.256;19.026;2022-07-21T14:57:55;9.15;;;3.78;;
18387;SDS011;9320;50.256;19.026;2022-07-21T15:00:24;10.32;;;4.03;;
18387;SDS011;9320;50.256;19.026;2022-07-21T15:02:53;8.70;;;4.03;;